createdAt,value
2023-01-30T00:04:39.321Z,3.5
2023-01-30T00:09:45.814Z,3.5
2023-01-30T00:14:42.174Z,3.6
2023-01-30T00:19:58.571Z,3.6
2023-01-30T00:25:25.176Z,3.7
2023-01-30T00:30:03.743Z,3.7
2023-01-30T00:35:16.735Z,3.7
2023-01-30T00:40:14.119Z,3.7
2023-01-30T00:45:30.721Z,3.7
2023-01-30T00:50:37.096Z,3.8
2023-01-30T00:55:57.496Z,3.8
2023-01-30T01:00:49.857Z,3.8
2023-01-30T01:05:56.255Z,3.8
2023-01-30T01:11:02.650Z,3.9
2023-01-30T01:16:09.070Z,3.9
2023-01-30T01:21:15.414Z,3.9
2023-01-30T01:26:21.814Z,4.0
2023-01-30T01:32:28.283Z,4.0
2023-01-30T01:36:52.719Z,4.0
2023-01-30T01:42:00.402Z,4.0
2023-01-30T01:47:11.788Z,4.1
2023-01-30T01:51:44.110Z,4.1
2023-01-30T01:57:00.539Z,4.1
2023-01-30T02:02:06.954Z,4.1
2023-01-30T02:07:17.370Z,4.1
2023-01-30T02:12:09.734Z,4.2
2023-01-30T02:17:26.234Z,4.2
2023-01-30T02:22:32.645Z,4.2
2023-01-30T02:27:39.031Z,4.2
2023-01-30T02:32:35.409Z,4.3
2023-01-30T02:37:51.806Z,4.3
2023-01-30T02:42:48.170Z,4.3
2023-01-30T02:48:04.569Z,4.3
2023-01-30T02:53:10.950Z,4.4
2023-01-30T02:58:37.373Z,4.4
2023-01-30T03:03:23.728Z,4.4
2023-01-30T03:08:30.261Z,4.5
2023-01-30T03:13:36.673Z,4.5
2023-01-30T03:23:49.430Z,4.5
2023-01-30T03:29:19.866Z,4.6
2023-01-30T03:34:16.234Z,4.6
2023-01-30T03:38:58.570Z,4.7
2023-01-30T03:44:15.044Z,4.7
2023-01-30T03:49:21.444Z,4.8
2023-01-30T03:54:27.897Z,4.8
2023-01-30T03:59:34.294Z,4.8
2023-01-30T04:05:00.702Z,4.9
2023-01-30T04:09:54.851Z,5.0
2023-01-30T04:15:17.859Z,5.0
2023-01-30T04:20:27.530Z,5.1
2023-01-30T04:25:37.925Z,5.1
2023-01-30T04:30:43.456Z,5.2
2023-01-30T04:37:13.932Z,5.3
2023-01-30T04:42:49.142Z,5.3
2023-01-30T04:47:31.765Z,5.4
2023-01-30T04:52:39.913Z,5.4
2023-01-30T04:57:44.497Z,5.4
2023-01-30T05:02:50.911Z,5.5
2023-01-30T05:07:57.295Z,5.5
2023-01-30T05:13:03.682Z,5.5
2023-01-30T05:18:10.095Z,5.5
2023-01-30T05:23:18.061Z,5.5
2023-01-30T05:28:24.408Z,5.6
2023-01-30T05:33:30.810Z,5.6
2023-01-30T05:38:37.177Z,5.6
2023-01-30T05:43:43.550Z,5.7
2023-01-30T05:48:49.946Z,5.6
2023-01-30T05:53:56.299Z,5.7
2023-01-30T05:59:02.687Z,5.7
2023-01-30T06:04:09.132Z,5.7
2023-01-30T06:14:21.452Z,5.7
2023-01-30T06:19:28.854Z,5.7
2023-01-30T06:24:35.213Z,5.7
2023-01-30T06:29:41.762Z,5.7
2023-01-30T06:34:48.162Z,5.7
2023-01-30T06:39:54.521Z,5.7
2023-01-30T06:45:00.912Z,5.6
2023-01-30T06:50:07.306Z,5.6
2023-01-30T06:55:13.674Z,5.6
2023-01-30T07:00:20.232Z,5.5
2023-01-30T07:05:26.660Z,5.5
2023-01-30T07:10:34.597Z,5.5
2023-01-30T07:20:37.343Z,5.4
2023-01-30T07:25:53.720Z,5.4
2023-01-30T07:31:00.160Z,5.4
2023-01-30T07:36:06.509Z,5.3
2023-01-30T07:41:13.046Z,5.3
2023-01-30T07:46:19.424Z,5.3
2023-01-30T07:53:01.576Z,5.3
2023-01-30T07:56:25.737Z,5.3
2023-01-30T08:06:48.521Z,5.3
2023-01-30T08:13:07.297Z,5.4
2023-01-30T08:17:01.515Z,5.3
2023-01-30T08:22:07.892Z,5.3
2023-01-30T08:27:14.279Z,5.3
2023-01-30T08:32:20.672Z,5.4
2023-01-30T08:37:27.045Z,5.4
2023-01-30T08:42:53.460Z,5.5
2023-01-30T08:47:39.827Z,5.6
2023-01-30T08:53:58.413Z,5.7
2023-01-30T08:57:52.668Z,5.8
2023-01-30T09:02:59.064Z,5.8
2023-01-30T09:08:29.456Z,5.9
2023-01-30T09:13:11.916Z,5.9
2023-01-30T09:18:18.321Z,6.0
2023-01-30T09:23:24.680Z,6.0
2023-01-30T09:30:03.222Z,6.0
2023-01-30T09:34:21.571Z,6.0
2023-01-30T09:38:43.862Z,6.0
2023-01-30T09:43:50.212Z,6.1
2023-01-30T09:48:56.626Z,6.1
2023-01-30T09:54:03.025Z,6.1
2023-01-30T09:59:33.418Z,6.2
2023-01-30T10:04:15.805Z,6.1
2023-01-30T10:09:24.035Z,6.2
2023-01-30T10:14:28.563Z,6.1
2023-01-30T10:19:36.676Z,6.2
2023-01-30T10:24:41.544Z,6.2
2023-01-30T10:30:07.975Z,6.2
2023-01-30T10:47:29.773Z,6.3
2023-01-30T10:50:37.504Z,6.3
2023-01-30T11:00:46.542Z,6.4
2023-01-30T11:05:32.841Z,6.5
2023-01-30T11:10:39.224Z,6.5
2023-01-30T11:15:45.911Z,6.6
2023-01-30T11:20:52.227Z,6.7
2023-01-30T11:26:10.452Z,6.7
2023-01-30T11:31:05.422Z,6.7
2023-01-30T11:46:23.725Z,6.9
2023-01-30T11:51:31.239Z,6.9
2023-01-30T11:56:37.663Z,7.0
2023-01-30T12:01:44.102Z,7.0
2023-01-30T12:07:34.575Z,7.0
2023-01-30T12:12:16.930Z,7.1
2023-01-30T12:17:03.309Z,7.1
2023-01-30T12:22:09.686Z,7.1
2023-01-30T12:27:40.367Z,7.2
2023-01-30T12:37:56.487Z,7.2
2023-01-30T12:42:39.806Z,7.3
2023-01-30T12:47:46.231Z,7.4
2023-01-30T12:53:11.667Z,7.5
2023-01-30T12:58:59.118Z,7.6
2023-01-30T13:03:28.635Z,7.8
2023-01-30T13:08:15.080Z,8.0
2023-01-30T13:13:21.437Z,8.1
2023-01-30T13:18:27.854Z,8.2
2023-01-30T13:23:34.274Z,8.3
2023-01-30T13:28:40.624Z,8.4
2023-01-30T13:33:47.007Z,8.4
2023-01-30T13:44:23.821Z,8.4
2023-01-30T13:49:06.172Z,8.4
2023-01-30T13:59:18.996Z,8.3
2023-01-30T14:04:25.354Z,8.4
2023-01-30T14:09:51.771Z,8.5
2023-01-30T14:14:58.191Z,8.6
2023-01-30T14:19:44.517Z,8.8
2023-01-30T14:25:14.941Z,8.9
2023-01-30T14:29:57.350Z,8.9
2023-01-30T14:35:03.730Z,8.9
2023-01-30T14:40:10.120Z,8.9
2023-01-30T14:45:36.602Z,8.9
2023-01-30T14:50:23.012Z,8.8
2023-01-30T14:55:29.339Z,8.8
2023-01-30T15:00:35.784Z,8.7
2023-01-30T15:05:42.135Z,8.6
2023-01-30T15:10:48.487Z,8.5
2023-01-30T15:15:54.863Z,8.4
2023-01-30T15:21:01.284Z,8.4
2023-01-30T15:26:07.699Z,8.2
2023-01-30T15:31:14.144Z,8.2
2023-01-30T15:36:20.595Z,8.1
2023-01-30T15:41:26.961Z,8.0
2023-01-30T15:46:33.331Z,7.9
2023-01-30T15:51:59.797Z,7.8
2023-01-30T15:57:10.156Z,7.7
2023-01-30T16:01:52.644Z,7.6
2023-01-30T16:06:58.948Z,7.6
2023-01-30T16:12:49.606Z,7.5
2023-01-30T16:17:11.925Z,7.4
2023-01-30T16:22:18.305Z,7.3
2023-01-30T16:27:24.724Z,7.3
2023-01-30T16:32:55.200Z,7.2
2023-01-30T16:38:11.629Z,7.0
2023-01-30T16:43:19.017Z,7.0
2023-01-30T16:48:25.504Z,7.0
2023-01-30T16:53:21.949Z,7.0
2023-01-30T16:58:38.347Z,6.9
2023-01-30T17:03:44.849Z,6.8
2023-01-30T17:08:41.118Z,6.8
2023-01-30T17:13:57.514Z,6.8
2023-01-30T17:18:53.912Z,6.7
2023-01-30T17:24:00.250Z,6.7
2023-01-30T17:29:11.921Z,6.6
2023-01-30T17:34:43.209Z,6.6
2023-01-30T17:39:19.511Z,6.5
2023-01-30T17:44:25.884Z,6.5
2023-01-30T17:49:32.267Z,6.5
2023-01-30T17:54:48.684Z,6.5
2023-01-30T18:10:06.967Z,6.4
2023-01-30T18:15:14.355Z,6.4
2023-01-30T18:20:21.303Z,6.4
2023-01-30T18:26:11.232Z,6.4
2023-01-30T18:30:33.536Z,6.3
2023-01-30T18:35:39.857Z,6.3
2023-01-30T18:41:06.286Z,6.2
2023-01-30T18:45:52.833Z,6.2
2023-01-30T18:50:59.221Z,6.2
2023-01-30T18:56:05.601Z,6.1
2023-01-30T19:01:12.128Z,6.1
2023-01-30T19:06:18.479Z,6.0
2023-01-30T19:11:48.787Z,6.0
2023-01-30T19:21:37.640Z,5.9
2023-01-30T19:26:44.116Z,5.8
2023-01-30T19:31:40.557Z,5.8
2023-01-30T19:36:56.814Z,5.7
2023-01-30T19:42:03.173Z,5.6
2023-01-30T19:52:15.962Z,5.5
2023-01-30T19:57:12.425Z,5.4
2023-01-30T20:02:30.857Z,5.3
2023-01-30T20:07:35.361Z,5.3
2023-01-30T20:12:41.847Z,5.2
2023-01-30T20:18:02.223Z,5.1
2023-01-30T20:22:58.188Z,5.0
2023-01-30T20:28:04.544Z,5.0
2023-01-30T20:33:10.931Z,5.0
2023-01-30T20:38:17.335Z,4.9
2023-01-30T20:43:23.708Z,4.9
2023-01-30T20:48:30.087Z,4.9
2023-01-30T20:53:36.489Z,4.9
2023-01-30T20:58:42.843Z,4.8
2023-01-30T21:03:49.309Z,4.8
2023-01-30T21:08:45.613Z,4.8
2023-01-30T21:19:08.456Z,4.7
2023-01-30T21:24:14.873Z,4.7
2023-01-30T21:34:27.555Z,4.6
2023-01-30T21:39:33.961Z,4.5
2023-01-30T21:44:40.319Z,4.5
2023-01-30T21:49:46.725Z,4.4
2023-01-30T21:54:53.108Z,4.4
2023-01-30T21:59:59.470Z,4.3
2023-01-30T22:15:18.933Z,4.1
2023-01-30T22:20:25.091Z,4.1
2023-01-30T22:26:18.643Z,4.0
2023-01-30T22:31:26.078Z,4.0
2023-01-30T22:36:36.385Z,4.0
2023-01-30T22:41:38.764Z,3.9
2023-01-30T22:46:45.195Z,3.9
2023-01-30T22:51:51.646Z,3.8
2023-01-30T22:56:58.120Z,3.7
2023-01-30T23:02:04.656Z,3.6
2023-01-30T23:07:10.867Z,3.6
2023-01-30T23:12:17.370Z,3.5
2023-01-30T23:17:23.745Z,3.5
2023-01-30T23:22:30.119Z,3.4
2023-01-30T23:27:36.734Z,3.4
2023-01-30T23:33:08.515Z,3.3
2023-01-30T23:37:50.851Z,3.3
2023-01-30T23:42:57.335Z,3.2
2023-01-30T23:48:03.704Z,3.1
2023-01-30T23:53:11.643Z,3.1
2023-01-30T23:58:18.063Z,3.1
